Time;durP1;ratioP1;P1;durP2;ratioP2;P2;SDS_P1;SDS_P2;PMS_P1;PMS_P2;Temp;Humidity;BMP_temperature;BMP_pressure;BME280_temperature;BME280_humidity;BME280_pressure;Samples;Min_cycle;Max_cycle;Signal;HPM_P1;HPM_P2
2022/07/05 00:00:04;;;;;;;32.15;4.60;;;24.20;82.40;;;;;;5041961;28;20027;-62
2022/07/05 00:02:29;;;;;;;17.85;4.63;;;24.20;82.50;;;;;;5043424;28;20036;-62
2022/07/05 00:04:55;;;;;;;20.55;4.53;;;24.20;82.60;;;;;;5023861;28;20115;-62
2022/07/05 00:07:21;;;;;;;28.95;4.55;;;24.10;82.40;;;;;;5039383;28;20551;-62
2022/07/05 00:09:51;;;;;;;18.40;4.95;;;24.10;82.40;;;;;;5041232;28;20416;-62
2022/07/05 00:12:18;;;;;;;15.20;4.40;;;24.10;82.50;;;;;;5039966;28;20044;-62
2022/07/05 00:14:44;;;;;;;21.85;4.40;;;24.10;82.80;;;;;;5042136;28;20032;-62
2022/07/05 00:17:10;;;;;;;15.15;4.18;;;24.10;83.00;;;;;;5024353;28;20164;-62
2022/07/05 00:19:36;;;;;;;17.38;3.70;;;24.10;83.10;;;;;;5037720;28;20473;-61
2022/07/05 00:22:02;;;;;;;21.95;4.55;;;24.10;83.20;;;;;;5009559;28;20033;-62
2022/07/05 00:24:27;;;;;;;21.38;3.80;;;24.00;83.30;;;;;;5023271;28;20033;-62
2022/07/05 00:26:53;;;;;;;26.40;4.47;;;24.00;83.30;;;;;;5040047;28;20032;-62
2022/07/05 00:29:18;;;;;;;17.13;4.10;;;24.00;83.40;;;;;;5042938;28;20037;-62
2022/07/05 00:31:44;;;;;;;20.15;4.50;;;24.00;83.10;;;;;;5042015;28;20017;-62
2022/07/05 00:34:09;;;;;;;14.45;3.88;;;24.00;83.00;;;;;;5041137;28;20436;-62
2022/07/05 00:36:35;;;;;;;17.40;4.53;;;24.00;82.90;;;;;;5022492;28;20025;-62
2022/07/05 00:39:00;;;;;;;11.70;3.80;;;24.00;82.80;;;;;;5037564;28;20060;-62
2022/07/05 00:41:26;;;;;;;17.77;4.40;;;24.00;82.80;;;;;;5040639;28;20062;-62
2022/07/05 00:44:02;;;;;;;18.48;4.80;;;24.00;82.80;;;;;;5041466;28;20099;-61
2022/07/05 00:46:28;;;;;;;18.73;4.72;;;24.00;82.90;;;;;;5040772;28;20029;-61
2022/07/05 00:48:53;;;;;;;12.63;4.93;;;24.00;83.00;;;;;;5037974;28;20048;-62
2022/07/05 00:51:19;;;;;;;19.15;5.30;;;23.90;83.00;;;;;;5018905;28;20064;-61
2022/07/05 00:53:45;;;;;;;15.52;4.85;;;24.00;83.10;;;;;;5025862;28;20658;-62
2022/07/05 00:56:11;;;;;;;12.65;4.43;;;24.00;83.40;;;;;;5040230;28;20037;-62
2022/07/05 00:58:37;;;;;;;14.95;4.57;;;24.00;83.40;;;;;;5020832;28;20420;-61
2022/07/05 01:01:03;;;;;;;13.98;4.00;;;23.90;83.30;;;;;;5022788;28;20052;-62
2022/07/05 01:03:29;;;;;;;15.43;4.15;;;23.90;83.30;;;;;;5037779;28;20041;-62
2022/07/05 01:05:54;;;;;;;11.48;3.80;;;23.90;83.60;;;;;;5024195;28;20048;-62
2022/07/05 01:08:21;;;;;;;15.77;4.22;;;23.90;83.70;;;;;;5021506;28;20044;-62
2022/07/05 01:10:46;;;;;;;10.38;3.88;;;23.80;83.70;;;;;;5021954;28;20032;-61
2022/07/05 01:13:12;;;;;;;11.80;3.85;;;23.90;83.90;;;;;;5023972;28;20034;-62
2022/07/05 01:15:37;;;;;;;8.38;3.75;;;23.80;84.00;;;;;;5037338;28;20029;-62
2022/07/05 01:18:04;;;;;;;13.10;3.42;;;23.80;84.00;;;;;;5022062;28;20036;-62
2022/07/05 01:20:30;;;;;;;15.10;4.15;;;23.80;84.10;;;;;;5022558;28;20467;-62
2022/07/05 01:22:56;;;;;;;11.57;4.05;;;23.80;84.10;;;;;;5039153;28;20037;-62
2022/07/05 01:25:22;;;;;;;10.90;3.67;;;23.80;84.00;;;;;;5023536;28;20496;-62
2022/07/05 01:27:49;;;;;;;11.90;3.83;;;23.80;84.10;;;;;;5039333;28;20036;-62
2022/07/05 01:30:15;;;;;;;10.85;3.47;;;23.80;84.10;;;;;;5036375;28;20520;-62
2022/07/05 01:32:40;;;;;;;10.75;4.15;;;23.80;83.90;;;;;;5038628;28;20310;-62
2022/07/05 01:35:09;;;;;;;7.70;3.70;;;23.80;83.70;;;;;;5022099;28;20033;-61
2022/07/05 01:37:35;;;;;;;10.52;3.83;;;23.80;83.60;;;;;;5007131;28;20048;-61
2022/07/05 01:40:02;;;;;;;7.68;3.20;;;23.80;83.60;;;;;;5037957;28;20078;-62
2022/07/05 01:42:28;;;;;;;10.57;3.50;;;23.70;83.60;;;;;;5039065;28;20053;-62
2022/07/05 01:44:53;;;;;;;13.30;3.85;;;23.70;83.70;;;;;;5037576;28;20052;-62
2022/07/05 01:47:19;;;;;;;9.18;3.22;;;23.70;83.70;;;;;;5040275;28;20453;-61
2022/07/05 01:49:46;;;;;;;11.02;3.38;;;23.70;83.80;;;;;;5021938;28;20040;-61
2022/07/05 01:52:12;;;;;;;8.80;3.97;;;23.70;84.20;;;;;;5022185;28;20033;-62
2022/07/05 01:54:38;;;;;;;13.65;3.67;;;23.70;84.30;;;;;;5038690;28;20040;-62
2022/07/05 01:57:07;;;;;;;7.03;2.97;;;23.70;84.40;;;;;;5038919;28;20043;-61
2022/07/05 01:59:33;;;;;;;7.65;3.63;;;23.70;84.40;;;;;;5039634;28;20107;-62
2022/07/05 02:01:59;;;;;;;8.25;3.10;;;23.70;84.50;;;;;;5040234;28;20036;-62
2022/07/05 02:04:25;;;;;;;9.32;2.95;;;23.60;84.40;;;;;;5034391;28;20025;-62
2022/07/05 02:06:50;;;;;;;9.13;3.25;;;23.70;84.60;;;;;;5037447;28;20029;-61
2022/07/05 02:09:16;;;;;;;8.63;3.10;;;23.70;84.50;;;;;;5039045;28;20025;-61
2022/07/05 02:11:41;;;;;;;7.63;2.95;;;23.70;84.60;;;;;;5042184;28;20725;-62
2022/07/05 02:14:07;;;;;;;5.47;2.72;;;23.60;84.50;;;;;;5036742;28;20089;-62
2022/07/05 02:16:32;;;;;;;11.02;3.22;;;23.60;84.80;;;;;;5020282;28;20040;-62
2022/07/05 02:18:58;;;;;;;9.40;3.38;;;23.60;84.80;;;;;;5037759;28;20178;-62
2022/07/05 02:21:23;;;;;;;9.60;2.97;;;23.60;84.80;;;;;;5037790;28;20050;-61
2022/07/05 02:23:49;;;;;;;6.68;2.72;;;23.60;84.80;;;;;;5041833;28;20239;-62
2022/07/05 02:26:14;;;;;;;8.73;3.17;;;23.60;84.50;;;;;;5042823;28;20025;-61
2022/07/05 02:28:40;;;;;;;7.80;2.75;;;23.60;84.40;;;;;;5019122;28;20039;-62
2022/07/05 02:31:06;;;;;;;8.43;2.78;;;23.60;84.50;;;;;;5022077;28;20036;-61
2022/07/05 02:33:31;;;;;;;9.57;2.72;;;23.50;84.50;;;;;;5037546;28;20437;-61
2022/07/05 02:35:58;;;;;;;8.55;2.70;;;23.50;84.60;;;;;;5038671;28;20100;-61
2022/07/05 02:38:23;;;;;;;9.52;3.10;;;23.50;84.60;;;;;;5041841;28;20416;-61
2022/07/05 02:40:49;;;;;;;8.50;3.28;;;23.50;84.70;;;;;;5037832;28;20018;-61
2022/07/05 02:43:15;;;;;;;9.82;3.40;;;23.40;84.70;;;;;;5040503;28;20037;-62
2022/07/05 02:45:40;;;;;;;6.13;2.80;;;23.40;84.70;;;;;;5039119;28;20136;-62
2022/07/05 02:48:06;;;;;;;6.63;2.70;;;23.40;84.70;;;;;;5036226;28;20115;-62
2022/07/05 02:50:31;;;;;;;7.10;2.78;;;23.40;84.70;;;;;;5021309;28;20076;-62
2022/07/05 02:52:57;;;;;;;6.20;2.40;;;23.40;84.80;;;;;;5040912;28;20280;-62
2022/07/05 02:55:22;;;;;;;6.53;2.60;;;23.40;84.80;;;;;;5036605;28;20069;-61
2022/07/05 02:57:48;;;;;;;4.70;2.75;;;23.30;84.70;;;;;;5038429;28;20537;-62
2022/07/05 03:00:14;;;;;;;8.70;2.53;;;23.30;84.80;;;;;;5035787;28;20065;-62
2022/07/05 03:02:39;;;;;;;5.25;2.45;;;23.20;84.70;;;;;;5039585;28;20737;-61
2022/07/05 03:05:05;;;;;;;7.78;2.58;;;23.30;84.90;;;;;;5020176;28;20415;-62
2022/07/05 03:07:31;;;;;;;8.38;3.10;;;23.20;84.80;;;;;;5038124;28;20082;-61
2022/07/05 03:09:56;;;;;;;5.28;3.20;;;23.20;84.90;;;;;;5020998;28;20500;-61
2022/07/05 03:12:22;;;;;;;6.05;2.85;;;23.20;84.90;;;;;;5037849;28;20044;-62
2022/07/05 03:14:47;;;;;;;4.47;3.50;;;23.20;84.80;;;;;;5035365;28;20704;-61
2022/07/05 03:17:13;;;;;;;6.45;3.47;;;23.20;84.90;;;;;;5038775;28;20535;-62
2022/07/05 03:19:38;;;;;;;7.47;3.22;;;23.20;84.90;;;;;;5035036;28;20056;-62
2022/07/05 03:22:04;;;;;;;5.53;2.65;;;23.20;84.90;;;;;;5021666;28;20112;-62
2022/07/05 03:24:29;;;;;;;4.93;3.08;;;23.10;84.70;;;;;;5038484;28;20063;-62
2022/07/05 03:26:55;;;;;;;5.05;3.00;;;23.10;84.70;;;;;;5038876;28;20506;-62
2022/07/05 03:29:20;;;;;;;7.95;3.00;;;23.10;84.70;;;;;;5036235;28;20040;-62
2022/07/05 03:31:46;;;;;;;5.85;2.70;;;23.10;84.80;;;;;;5023223;28;20029;-61
2022/07/05 03:34:11;;;;;;;6.30;2.67;;;23.10;84.70;;;;;;5037895;28;20033;-62
2022/07/05 03:36:37;;;;;;;7.65;2.97;;;23.00;84.70;;;;;;5038877;28;20127;-61
2022/07/05 03:39:02;;;;;;;8.25;2.85;;;23.00;84.70;;;;;;5033920;28;20151;-62
2022/07/05 03:41:28;;;;;;;13.18;3.10;;;23.00;84.80;;;;;;5034571;28;20517;-62
2022/07/05 03:43:53;;;;;;;7.88;3.67;;;23.00;84.80;;;;;;5021782;28;20041;-62
2022/07/05 03:46:19;;;;;;;11.98;4.15;;;22.90;84.70;;;;;;5038938;28;20021;-62
2022/07/05 03:48:44;;;;;;;7.60;3.97;;;23.00;84.80;;;;;;5036339;28;20029;-62
2022/07/05 03:51:10;;;;;;;10.20;3.67;;;23.00;84.60;;;;;;5037764;28;20203;-62
2022/07/05 03:53:35;;;;;;;15.55;3.80;;;22.90;84.50;;;;;;5036965;28;20258;-62
2022/07/05 03:56:01;;;;;;;9.70;3.50;;;22.90;84.60;;;;;;5039342;28;20144;-62
2022/07/05 03:58:27;;;;;;;8.05;3.65;;;22.90;84.60;;;;;;5038024;28;20033;-61
2022/07/05 04:00:52;;;;;;;8.25;3.70;;;22.90;84.70;;;;;;5037265;28;20029;-62
2022/07/05 04:03:18;;;;;;;11.48;3.75;;;22.90;84.70;;;;;;5036815;28;20076;-62
2022/07/05 04:05:43;;;;;;;11.65;3.10;;;22.80;84.80;;;;;;5019596;28;20067;-61
2022/07/05 04:08:09;;;;;;;7.07;3.00;;;22.90;84.80;;;;;;5038156;28;20140;-62
2022/07/05 04:10:34;;;;;;;7.82;3.28;;;22.80;84.80;;;;;;5039988;28;20043;-61
2022/07/05 04:13:00;;;;;;;10.40;3.40;;;22.80;84.70;;;;;;5040065;28;20033;-61
2022/07/05 04:15:25;;;;;;;13.13;3.42;;;22.80;84.60;;;;;;5041816;28;20568;-62
2022/07/05 04:17:55;;;;;;;7.18;2.97;;;22.80;84.60;;;;;;5038462;28;20021;-61
2022/07/05 04:20:21;;;;;;;6.95;2.67;;;22.80;84.70;;;;;;5038530;28;20039;-62
2022/07/05 04:22:47;;;;;;;5.93;2.72;;;22.80;84.80;;;;;;5040669;28;20040;-61
2022/07/05 04:25:22;;;;;;;6.93;2.85;;;22.80;84.90;;;;;;5041413;28;20561;-61
2022/07/05 04:27:49;;;;;;;9.75;2.97;;;22.80;84.80;;;;;;5039998;28;20110;-62
2022/07/05 04:30:15;;;;;;;9.13;3.45;;;22.80;84.70;;;;;;5039241;28;20049;-62
2022/07/05 04:32:40;;;;;;;18.92;3.65;;;22.80;84.80;;;;;;5040676;28;20681;-62
2022/07/05 04:35:06;;;;;;;18.15;3.47;;;22.80;84.70;;;;;;5021446;28;20347;-62
2022/07/05 04:37:32;;;;;;;17.98;3.70;;;22.80;84.70;;;;;;5041068;28;20100;-62
2022/07/05 04:39:57;;;;;;;49.42;5.78;;;22.70;84.70;;;;;;5019729;28;20045;-62
2022/07/05 04:42:23;;;;;;;28.92;6.20;;;22.70;84.80;;;;;;5038650;28;20131;-61
2022/07/05 04:44:48;;;;;;;39.20;5.80;;;22.70;84.80;;;;;;5040158;28;20465;-63
2022/07/05 04:47:14;;;;;;;34.78;5.78;;;22.70;84.90;;;;;;5038257;28;20033;-61
2022/07/05 04:49:40;;;;;;;30.67;5.07;;;22.70;85.00;;;;;;5037940;28;20044;-62
2022/07/05 04:52:05;;;;;;;28.90;4.55;;;22.70;85.10;;;;;;5021163;28;20542;-62
2022/07/05 04:54:31;;;;;;;22.15;4.38;;;22.70;85.10;;;;;;5036933;28;20044;-62
2022/07/05 04:56:56;;;;;;;21.38;4.70;;;22.70;85.10;;;;;;5036721;28;20033;-62
2022/07/05 04:59:22;;;;;;;28.02;4.55;;;22.70;85.00;;;;;;5039587;28;20032;-61
2022/07/05 05:01:47;;;;;;;28.17;4.82;;;22.70;85.10;;;;;;5040445;28;20067;-62
2022/07/05 05:04:13;;;;;;;19.08;4.57;;;22.70;85.10;;;;;;5022002;28;20508;-61
2022/07/05 05:06:38;;;;;;;17.90;4.13;;;22.70;85.10;;;;;;5023555;28;20028;-62
2022/07/05 05:09:04;;;;;;;22.60;4.18;;;22.70;85.20;;;;;;5038984;28;20037;-62
2022/07/05 05:11:29;;;;;;;15.90;4.05;;;22.70;85.20;;;;;;5038908;28;20032;-62
2022/07/05 05:13:55;;;;;;;25.63;4.45;;;22.70;85.30;;;;;;5042726;28;20047;-63
2022/07/05 05:16:20;;;;;;;18.77;4.13;;;22.60;85.20;;;;;;5041997;28;20297;-62
2022/07/05 05:18:46;;;;;;;24.55;4.05;;;22.60;85.20;;;;;;5038039;28;20146;-62
2022/07/05 05:21:12;;;;;;;22.70;3.85;;;22.70;85.20;;;;;;5039202;28;20649;-61
2022/07/05 05:23:37;;;;;;;10.95;3.65;;;22.70;85.10;;;;;;5021191;28;20068;-62
2022/07/05 05:26:03;;;;;;;15.45;3.22;;;22.70;84.90;;;;;;5040145;28;20025;-62
2022/07/05 05:28:28;;;;;;;22.67;3.97;;;22.70;85.00;;;;;;5042751;28;20021;-62
2022/07/05 05:30:54;;;;;;;15.93;3.65;;;22.60;84.90;;;;;;5038456;28;20531;-62
2022/07/05 05:33:20;;;;;;;15.65;3.83;;;22.60;84.90;;;;;;5036997;28;20025;-62
2022/07/05 05:35:45;;;;;;;19.35;3.10;;;22.60;84.80;;;;;;5039062;28;20037;-61
2022/07/05 05:38:11;;;;;;;18.65;4.07;;;22.60;84.90;;;;;;5041567;28;20477;-62
2022/07/05 05:40:42;;;;;;;10.45;3.60;;;22.70;84.80;;;;;;5041211;28;20029;-62
2022/07/05 05:43:07;;;;;;;13.95;3.72;;;22.70;84.90;;;;;;5040017;28;20044;-62
2022/07/05 05:45:33;;;;;;;14.00;3.33;;;22.70;85.20;;;;;;5038131;28;20037;-61
2022/07/05 05:47:59;;;;;;;10.85;3.55;;;22.70;85.30;;;;;;5021434;28;20069;-62
2022/07/05 05:50:26;;;;;;;21.55;3.88;;;22.70;85.40;;;;;;5040845;28;20101;-62
2022/07/05 05:52:51;;;;;;;12.98;3.45;;;22.70;85.20;;;;;;5040712;28;20048;-62
2022/07/05 05:55:17;;;;;;;8.27;3.30;;;22.70;85.00;;;;;;5020296;28;20506;-61
2022/07/05 05:57:43;;;;;;;12.18;3.85;;;22.70;84.90;;;;;;5038792;28;20067;-63
2022/07/05 06:00:09;;;;;;;13.50;3.50;;;22.70;84.90;;;;;;5019903;28;20059;-62
2022/07/05 06:02:34;;;;;;;12.10;3.75;;;22.70;84.90;;;;;;5041019;28;20041;-62
2022/07/05 06:05:00;;;;;;;10.40;3.53;;;22.70;84.90;;;;;;5038638;28;20033;-61
2022/07/05 06:07:25;;;;;;;6.60;2.97;;;22.70;85.20;;;;;;5040547;28;20021;-62
2022/07/05 06:09:51;;;;;;;10.38;3.38;;;22.70;85.30;;;;;;5037964;28;20274;-62
2022/07/05 06:12:17;;;;;;;9.93;2.90;;;22.70;85.60;;;;;;5038912;28;20063;-62
2022/07/05 06:14:42;;;;;;;8.23;3.00;;;22.70;86.10;;;;;;5020859;28;20040;-61
2022/07/05 06:17:07;;;;;;;9.77;3.15;;;22.70;86.30;;;;;;5036860;28;20044;-62
2022/07/05 06:19:33;;;;;;;7.28;3.35;;;22.60;86.10;;;;;;5042659;28;20100;-62
2022/07/05 06:21:59;;;;;;;6.32;2.58;;;22.60;86.30;;;;;;5041784;28;20036;-61
2022/07/05 06:24:24;;;;;;;10.35;3.15;;;22.60;86.60;;;;;;5040105;28;20032;-61
2022/07/05 06:26:49;;;;;;;5.72;2.65;;;22.60;86.60;;;;;;5038289;28;20029;-62
2022/07/05 06:29:15;;;;;;;6.35;2.67;;;22.60;87.20;;;;;;5039916;28;20021;-61
2022/07/05 06:31:41;;;;;;;7.13;2.67;;;22.70;86.60;;;;;;5038702;28;20481;-62
2022/07/05 06:34:06;;;;;;;11.98;3.38;;;22.60;86.70;;;;;;5034520;28;20419;-62
2022/07/05 06:36:32;;;;;;;6.15;2.80;;;22.70;86.90;;;;;;5036010;28;20025;-62
2022/07/05 06:38:57;;;;;;;8.00;2.60;;;22.70;87.10;;;;;;5019388;28;20064;-62
2022/07/05 06:41:23;;;;;;;11.07;2.80;;;22.60;87.30;;;;;;5033684;28;20072;-61
2022/07/05 06:43:48;;;;;;;6.30;2.67;;;22.60;87.40;;;;;;5039700;28;20111;-61
2022/07/05 06:46:14;;;;;;;17.23;3.28;;;22.60;87.40;;;;;;5040991;28;20025;-62
2022/07/05 06:48:39;;;;;;;10.23;2.65;;;22.60;87.60;;;;;;5037983;28;20379;-62
2022/07/05 06:51:05;;;;;;;6.03;2.78;;;22.60;87.90;;;;;;5038948;28;20028;-63
2022/07/05 06:53:30;;;;;;;4.40;2.50;;;22.60;87.90;;;;;;5036758;28;20041;-62
2022/07/05 06:55:56;;;;;;;8.15;2.20;;;22.60;87.80;;;;;;5015257;28;20041;-61
2022/07/05 06:58:21;;;;;;;7.68;2.90;;;22.60;87.70;;;;;;5023161;28;20100;-61
2022/07/05 07:00:47;;;;;;;9.48;2.67;;;22.60;87.90;;;;;;5022324;28;20519;-62
2022/07/05 07:03:12;;;;;;;13.55;2.95;;;22.60;87.90;;;;;;5033546;28;20443;-62
2022/07/05 07:05:38;;;;;;;7.65;2.40;;;22.70;87.90;;;;;;5036631;28;20041;-61
2022/07/05 07:10:48;;;;;;;16.60;3.50;;;22.70;87.40;;;;;;5026999;28;20044;-62
2022/07/05 07:13:13;;;;;;;27.00;4.03;;;22.70;87.90;;;;;;5034170;28;20025;-62
2022/07/05 07:15:40;;;;;;;27.55;4.25;;;22.70;87.80;;;;;;5034149;28;20106;-62
2022/07/05 07:18:06;;;;;;;20.85;3.58;;;22.80;87.60;;;;;;5036206;28;20025;-62
2022/07/05 07:20:31;;;;;;;24.10;3.47;;;22.80;87.40;;;;;;5033448;28;20048;-61
2022/07/05 07:22:57;;;;;;;27.08;4.05;;;22.80;87.10;;;;;;5035997;28;20043;-62
2022/07/05 07:25:25;;;;;;;16.67;3.78;;;22.90;87.10;;;;;;5020674;28;20485;-62
2022/07/05 07:27:51;;;;;;;23.30;4.15;;;22.90;86.70;;;;;;5016010;28;20134;-62
2022/07/05 07:30:22;;;;;;;19.17;3.65;;;22.90;86.70;;;;;;5035726;28;20163;-62
2022/07/05 07:32:47;;;;;;;32.20;5.13;;;22.90;86.40;;;;;;5029483;28;20489;-62
2022/07/05 07:35:13;;;;;;;28.98;4.45;;;23.00;86.40;;;;;;5034643;28;20100;-62
2022/07/05 07:37:38;;;;;;;28.05;5.25;;;23.00;86.30;;;;;;5016873;28;20044;-61
2022/07/05 07:40:05;;;;;;;26.98;4.57;;;23.00;86.10;;;;;;5025986;28;20394;-62
2022/07/05 07:42:30;;;;;;;34.50;5.57;;;23.00;86.10;;;;;;5019388;28;20088;-62
2022/07/05 07:44:56;;;;;;;41.75;5.13;;;23.10;86.80;;;;;;5015289;28;20053;-61
2022/07/05 07:47:21;;;;;;;41.20;6.20;;;23.10;85.90;;;;;;5036366;28;20079;-62
2022/07/05 07:49:47;;;;;;;33.03;5.50;;;23.10;85.80;;;;;;5031934;28;20045;-61
2022/07/05 07:52:12;;;;;;;42.72;6.13;;;23.10;85.70;;;;;;5034084;28;20035;-62
2022/07/05 07:54:38;;;;;;;36.75;5.38;;;23.10;85.70;;;;;;5034194;28;20094;-62
2022/07/05 07:57:04;;;;;;;35.45;4.68;;;23.10;85.50;;;;;;5038173;28;20081;-62
2022/07/05 07:59:33;;;;;;;30.70;5.07;;;23.10;85.40;;;;;;5036052;28;20037;-62
2022/07/05 08:01:59;;;;;;;26.88;4.78;;;23.10;85.40;;;;;;5040265;28;20110;-62
2022/07/05 08:04:24;;;;;;;23.35;4.70;;;23.10;85.20;;;;;;5022194;28;20017;-62
2022/07/05 08:06:50;;;;;;;87.00;10.45;;;23.10;85.20;;;;;;5033924;28;20025;-61
2022/07/05 08:09:15;;;;;;;22.45;4.93;;;23.10;85.30;;;;;;5022336;28;20025;-62
2022/07/05 08:11:41;;;;;;;23.42;4.68;;;23.10;85.20;;;;;;5039023;28;20037;-62
2022/07/05 08:14:06;;;;;;;34.65;4.93;;;23.10;85.30;;;;;;5024204;28;20045;-62
2022/07/05 08:16:32;;;;;;;46.70;6.68;;;23.10;85.30;;;;;;5043001;28;20056;-61
2022/07/05 08:21:43;;;;;;;32.85;4.88;;;23.10;85.40;;;;;;5041538;28;20105;-62
2022/07/05 08:24:14;;;;;;;34.92;5.20;;;23.10;85.10;;;;;;5040508;28;20686;-62
2022/07/05 08:26:40;;;;;;;35.90;5.15;;;23.10;85.10;;;;;;5025426;28;20637;-62
2022/07/05 08:29:07;;;;;;;25.42;4.35;;;23.10;85.10;;;;;;5022302;28;20037;-63
2022/07/05 08:31:34;;;;;;;40.38;4.78;;;23.10;84.90;;;;;;5037912;28;20622;-62
2022/07/05 08:34:00;;;;;;;23.05;4.53;;;23.10;85.00;;;;;;5040097;28;20094;-62
2022/07/05 08:36:26;;;;;;;45.45;5.35;;;23.10;85.20;;;;;;5020711;28;20478;-62
2022/07/05 08:38:51;;;;;;;31.77;5.07;;;23.10;85.30;;;;;;5037695;28;20037;-62
2022/07/05 08:41:19;;;;;;;34.20;5.78;;;23.10;85.10;;;;;;5042837;28;20037;-62
2022/07/05 08:43:46;;;;;;;32.70;5.45;;;23.10;85.30;;;;;;5010924;28;20891;-62
2022/07/05 08:46:11;;;;;;;25.13;4.53;;;23.10;85.20;;;;;;5036002;28;20028;-62
2022/07/05 08:48:42;;;;;;;41.40;5.90;;;23.10;84.90;;;;;;5021440;28;20493;-61
2022/07/05 08:51:16;;;;;;;53.15;5.93;;;23.20;84.70;;;;;;5030167;28;20017;-62
2022/07/05 08:53:42;;;;;;;47.72;7.28;;;23.10;84.30;;;;;;5038014;28;20021;-61
2022/07/05 08:56:08;;;;;;;38.38;5.82;;;23.20;84.20;;;;;;5036546;28;20036;-62
2022/07/05 08:58:34;;;;;;;52.45;6.32;;;23.20;84.00;;;;;;5039590;28;20473;-62
2022/07/05 09:01:00;;;;;;;44.72;5.65;;;23.20;83.90;;;;;;5040846;28;20033;-62
2022/07/05 09:03:26;;;;;;;29.23;5.50;;;23.30;84.00;;;;;;5038242;28;20364;-63
2022/07/05 09:05:51;;;;;;;41.10;6.35;;;23.30;84.00;;;;;;5022103;28;20029;-62
2022/07/05 09:08:17;;;;;;;35.05;5.15;;;23.30;83.90;;;;;;5038934;28;20127;-62
2022/07/05 09:10:43;;;;;;;33.90;5.10;;;23.30;84.00;;;;;;5008875;28;20085;-62
2022/07/05 09:13:08;;;;;;;41.58;6.20;;;23.30;84.30;;;;;;5020606;28;20112;-62
2022/07/05 09:15:34;;;;;;;53.30;6.75;;;23.30;84.30;;;;;;5040553;28;20021;-61
2022/07/05 09:17:59;;;;;;;44.03;6.15;;;23.30;84.40;;;;;;5005977;28;20041;-62
2022/07/05 09:20:26;;;;;;;40.53;5.93;;;23.30;84.20;;;;;;5031323;28;20132;-62
2022/07/05 09:22:52;;;;;;;45.53;6.82;;;23.30;83.90;;;;;;5038288;28;20029;-62
2022/07/05 09:25:19;;;;;;;50.10;6.97;;;23.30;83.90;;;;;;5036828;28;20096;-62
2022/07/05 09:27:51;;;;;;;61.85;6.85;;;23.40;83.60;;;;;;5035770;28;20040;-62
2022/07/05 09:30:28;;;;;;;33.50;5.90;;;23.40;83.30;;;;;;5023271;28;20442;-61
2022/07/05 09:33:04;;;;;;;31.48;6.28;;;23.40;82.60;;;;;;5036627;28;20028;-62
2022/07/05 09:35:42;;;;;;;36.88;5.70;;;23.40;81.90;;;;;;5034908;28;20046;-61
2022/07/05 09:38:19;;;;;;;34.20;6.05;;;23.40;81.80;;;;;;5021255;28;20112;-62
2022/07/05 09:40:49;;;;;;;32.10;5.22;;;23.50;81.50;;;;;;5037666;28;20120;-62
2022/07/05 09:43:22;;;;;;;45.42;6.15;;;23.50;81.10;;;;;;5041379;28;20027;-62
2022/07/05 09:45:57;;;;;;;39.38;5.38;;;23.50;81.00;;;;;;5038572;28;20041;-62
2022/07/05 09:48:23;;;;;;;35.78;4.47;;;23.60;80.90;;;;;;5036463;28;20041;-62
2022/07/05 09:50:50;;;;;;;42.17;4.60;;;23.60;80.60;;;;;;5037049;28;20086;-62
2022/07/05 09:53:15;;;;;;;31.35;4.72;;;23.60;80.30;;;;;;5036123;28;20512;-61
2022/07/05 09:55:41;;;;;;;19.88;4.00;;;23.60;80.10;;;;;;5039145;28;20029;-62
2022/07/05 09:58:07;;;;;;;22.63;4.68;;;23.70;80.00;;;;;;5037445;28;20166;-62
2022/07/05 10:00:32;;;;;;;26.38;4.40;;;23.70;79.90;;;;;;5022497;28;20431;-62
2022/07/05 10:03:01;;;;;;;27.02;3.83;;;23.70;78.90;;;;;;5023794;28;20021;-62
2022/07/05 10:05:31;;;;;;;30.13;3.65;;;23.70;78.10;;;;;;5040643;28;20586;-62
2022/07/05 10:07:58;;;;;;;22.80;4.15;;;23.80;78.00;;;;;;5025455;28;20033;-62
2022/07/05 10:10:28;;;;;;;26.48;3.55;;;23.80;77.70;;;;;;5023177;28;20029;-62
2022/07/05 10:13:00;;;;;;;27.10;3.85;;;23.80;77.00;;;;;;5040517;28;20042;-62
2022/07/05 10:15:27;;;;;;;27.98;4.13;;;24.00;76.50;;;;;;5039792;28;20028;-63
2022/07/05 10:18:09;;;;;;;27.25;3.88;;;23.90;75.80;;;;;;5038530;28;20090;-62
2022/07/05 10:20:40;;;;;;;29.60;4.53;;;23.90;75.10;;;;;;5024653;28;20107;-62
2022/07/05 10:23:07;;;;;;;46.70;5.75;;;24.00;74.20;;;;;;5041062;28;20384;-62
2022/07/05 10:25:35;;;;;;;36.08;4.97;;;24.10;73.70;;;;;;5023226;28;20098;-61
2022/07/05 10:28:00;;;;;;;40.03;5.35;;;24.10;72.90;;;;;;5006509;28;20033;-62
2022/07/05 10:30:26;;;;;;;45.30;6.38;;;24.10;72.20;;;;;;5020736;28;20378;-62
2022/07/05 10:32:51;;;;;;;48.08;5.78;;;24.10;71.60;;;;;;5037279;28;20529;-62
2022/07/05 10:35:17;;;;;;;30.30;5.20;;;24.20;71.20;;;;;;5037832;28;20029;-63
2022/07/05 10:37:43;;;;;;;43.47;6.13;;;24.20;71.50;;;;;;5038493;28;20082;-61
2022/07/05 10:40:09;;;;;;;41.05;5.65;;;24.20;70.70;;;;;;5007317;28;20379;-62
2022/07/05 10:42:40;;;;;;;48.97;6.00;;;24.30;70.50;;;;;;5020866;28;20048;-62
2022/07/05 10:45:27;;;;;;;52.17;6.45;;;24.40;70.00;;;;;;5019984;28;20116;-62
2022/07/05 10:48:12;;;;;;;37.22;6.03;;;24.40;69.10;;;;;;5036469;28;20094;-62
2022/07/05 10:50:45;;;;;;;40.20;6.70;;;24.40;68.80;;;;;;5032207;28;20639;-62
2022/07/05 10:53:12;;;;;;;65.72;7.00;;;24.50;68.70;;;;;;5034626;28;20560;-62
2022/07/05 10:55:51;;;;;;;50.28;6.47;;;24.60;68.40;;;;;;5020082;28;20021;-62
2022/07/05 10:58:16;;;;;;;56.90;6.85;;;24.70;68.40;;;;;;5033920;28;20476;-62
2022/07/05 11:00:42;;;;;;;41.17;6.68;;;24.60;68.60;;;;;;5037261;28;20026;-62
2022/07/05 11:03:41;;;;;;;52.00;7.15;;;24.70;68.10;;;;;;5033069;28;20105;-62
2022/07/05 11:06:07;;;;;;;122.50;13.10;;;24.70;67.50;;;;;;5035706;28;20483;-62
2022/07/05 11:09:08;;;;;;;78.93;9.00;;;24.80;66.70;;;;;;5009112;28;20777;-62
2022/07/05 11:11:44;;;;;;;88.05;9.10;;;24.90;67.00;;;;;;5028418;28;20048;-62
2022/07/05 11:14:19;;;;;;;77.90;9.75;;;24.90;67.30;;;;;;5030378;28;20096;-62
2022/07/05 11:16:45;;;;;;;89.25;11.38;;;25.00;66.80;;;;;;5034957;28;20028;-62
2022/07/05 11:19:12;;;;;;;87.63;10.65;;;25.10;66.80;;;;;;5013413;28;20037;-61
2022/07/05 11:22:05;;;;;;;50.10;8.35;;;25.20;66.80;;;;;;5035757;28;20078;-62
2022/07/05 11:24:31;;;;;;;66.97;8.50;;;25.30;66.20;;;;;;5022397;28;20321;-61
2022/07/05 11:27:01;;;;;;;60.17;8.02;;;25.30;65.60;;;;;;5037575;28;20456;-61
2022/07/05 11:29:49;;;;;;;56.90;7.00;;;25.40;65.40;;;;;;5040659;28;20063;-61
2022/07/05 11:32:42;;;;;;;64.65;9.15;;;25.50;64.60;;;;;;5040435;28;20074;-62
2022/07/05 11:35:19;;;;;;;71.47;9.07;;;25.60;65.40;;;;;;5041390;28;20052;-61
2022/07/05 11:37:58;;;;;;;90.38;11.35;;;25.70;64.30;;;;;;5034591;28;20122;-62
2022/07/05 11:40:28;;;;;;;82.05;10.55;;;25.80;65.00;;;;;;5036298;28;20219;-61
2022/07/05 11:42:54;;;;;;;77.03;10.75;;;25.90;65.10;;;;;;5038923;28;20396;-61
2022/07/05 11:45:20;;;;;;;68.57;9.55;;;25.90;64.70;;;;;;5040509;28;20025;-61
2022/07/05 11:47:45;;;;;;;74.90;9.27;;;26.00;64.90;;;;;;5041678;28;20040;-62
2022/07/05 11:50:11;;;;;;;65.00;8.55;;;26.10;64.60;;;;;;5039343;28;20138;-62
2022/07/05 11:52:37;;;;;;;53.60;8.55;;;26.20;64.30;;;;;;5025712;28;20029;-61
2022/07/05 11:55:04;;;;;;;70.85;7.22;;;26.30;64.50;;;;;;5041887;28;20029;-61
2022/07/05 11:57:30;;;;;;;53.75;8.15;;;26.40;63.50;;;;;;5042862;28;20020;-62
2022/07/05 11:59:55;;;;;;;51.28;7.28;;;26.40;63.30;;;;;;5032781;28;20437;-61
2022/07/05 12:02:21;;;;;;;50.80;6.10;;;26.60;63.20;;;;;;5022208;28;20144;-62
2022/07/05 12:04:47;;;;;;;57.30;6.75;;;26.60;62.80;;;;;;5038141;28;20564;-61
2022/07/05 12:07:27;;;;;;;49.10;6.50;;;26.70;62.80;;;;;;5019815;28;20112;-62
2022/07/05 12:12:42;;;;;;;43.58;6.55;;;26.90;63.50;;;;;;5028534;28;20116;-61
2022/07/05 12:15:12;;;;;;;44.55;6.65;;;27.00;62.70;;;;;;5037708;28;20036;-61
2022/07/05 12:17:38;;;;;;;48.38;6.95;;;27.10;63.30;;;;;;5031295;28;20164;-61
2022/07/05 12:20:08;;;;;;;53.63;6.47;;;27.10;63.00;;;;;;5017295;28;20303;-61
2022/07/05 12:22:35;;;;;;;50.67;6.50;;;27.20;63.10;;;;;;5020402;28;20045;-61
2022/07/05 12:25:01;;;;;;;66.15;6.43;;;27.30;62.50;;;;;;5034621;28;20025;-62
2022/07/05 12:27:27;;;;;;;55.80;5.97;;;27.30;62.50;;;;;;5032545;28;20025;-62
2022/07/05 12:29:53;;;;;;;40.92;5.55;;;27.50;62.40;;;;;;5033881;28;20672;-62
2022/07/05 12:32:18;;;;;;;44.70;5.72;;;27.50;62.00;;;;;;5018264;28;20099;-62
2022/07/05 12:34:44;;;;;;;34.45;5.28;;;27.60;61.90;;;;;;5020075;28;20536;-62
2022/07/05 12:37:09;;;;;;;35.10;4.95;;;27.70;60.20;;;;;;5038989;28;20112;-61
2022/07/05 12:39:35;;;;;;;32.20;4.30;;;27.70;60.10;;;;;;5001068;28;20044;-62
2022/07/05 12:42:00;;;;;;;27.75;4.68;;;27.80;59.80;;;;;;5035976;28;20421;-61
2022/07/05 12:44:26;;;;;;;39.28;5.57;;;27.80;59.50;;;;;;5036683;28;20436;-61